createdAt,value
2023-05-23T00:00:33.609Z,4.80
2023-05-23T00:03:24.326Z,5.00
2023-05-23T00:05:52.221Z,4.40
2023-05-23T00:08:21.939Z,4.60
2023-05-23T00:10:49.884Z,4.80
2023-05-23T00:13:18.780Z,4.40
2023-05-23T00:15:48.765Z,4.90
2023-05-23T00:18:19.206Z,4.80
2023-05-23T00:20:47.257Z,4.80
2023-05-23T00:23:19.228Z,4.80
2023-05-23T00:25:53.077Z,5.20
2023-05-23T00:28:21.831Z,4.40
2023-05-23T00:30:50.180Z,4.40
2023-05-23T00:33:22.381Z,5.20
2023-05-23T00:35:53.566Z,4.80
2023-05-23T00:38:22.014Z,4.80
2023-05-23T00:40:52.360Z,4.10
2023-05-23T00:43:21.426Z,4.70
2023-05-23T00:45:49.597Z,4.70
2023-05-23T00:48:17.581Z,4.60
2023-05-23T00:50:55.061Z,5.10
2023-05-23T00:53:23.062Z,4.90
2023-05-23T00:55:51.290Z,4.80
2023-05-23T00:58:19.213Z,4.70
2023-05-23T01:03:35.093Z,4.50
2023-05-23T01:06:03.513Z,5.00
2023-05-23T01:08:33.938Z,5.20
2023-05-23T01:11:04.910Z,5.30
2023-05-23T01:13:43.394Z,4.90
2023-05-23T01:16:18.830Z,4.90
2023-05-23T01:18:54.732Z,5.70
2023-05-23T01:21:24.023Z,5.30
2023-05-23T01:23:55.874Z,4.80
2023-05-23T01:26:35.434Z,5.10
2023-05-23T01:29:14.818Z,5.60
2023-05-23T01:31:46.716Z,4.90
2023-05-23T01:34:14.858Z,4.90
2023-05-23T01:36:43.533Z,5.00
2023-05-23T01:39:12.505Z,5.00
2023-05-23T01:41:52.120Z,5.40
2023-05-23T01:44:21.372Z,5.30
2023-05-23T01:46:49.642Z,5.80
2023-05-23T01:49:18.621Z,6.10
2023-05-23T01:51:46.608Z,6.40
2023-05-23T01:54:17.081Z,6.20
2023-05-23T01:56:45.421Z,6.00
2023-05-23T01:59:13.493Z,6.10
2023-05-23T02:01:42.487Z,5.60
2023-05-23T02:04:11.803Z,6.30
2023-05-23T02:06:39.756Z,5.70
2023-05-23T02:09:08.471Z,5.30
2023-05-23T02:11:36.434Z,5.50
2023-05-23T02:14:04.647Z,7.40
2023-05-23T02:16:33.414Z,5.80
2023-05-23T02:19:02.285Z,5.70
2023-05-23T02:21:34.277Z,6.50
2023-05-23T02:24:23.520Z,7.20
2023-05-23T02:26:51.301Z,7.30
2023-05-23T02:29:19.583Z,6.90
2023-05-23T02:31:47.436Z,8.20
2023-05-23T02:34:15.734Z,7.40
2023-05-23T02:36:43.752Z,6.90
2023-05-23T02:39:11.895Z,5.80
2023-05-23T02:41:40.036Z,6.20
2023-05-23T02:44:11.316Z,5.50
2023-05-23T02:46:39.287Z,6.10
2023-05-23T02:49:07.257Z,6.60
2023-05-23T02:51:35.377Z,6.00
2023-05-23T02:54:03.531Z,6.20
2023-05-23T02:56:34.357Z,5.70
2023-05-23T02:59:02.184Z,6.30
2023-05-23T03:01:29.960Z,6.10
2023-05-23T03:03:58.056Z,6.60
2023-05-23T03:06:27.935Z,6.50
2023-05-23T03:08:57.170Z,6.00
2023-05-23T03:11:25.438Z,6.10
2023-05-23T03:13:53.502Z,6.10
2023-05-23T03:16:22.179Z,6.50
2023-05-23T03:18:50.169Z,6.30
2023-05-23T03:21:18.272Z,7.20
2023-05-23T03:23:46.336Z,6.90
2023-05-23T03:26:14.248Z,6.50
2023-05-23T03:28:42.144Z,7.30
2023-05-23T03:31:09.962Z,6.50
2023-05-23T03:33:40.267Z,7.30
2023-05-23T03:36:08.626Z,5.90
2023-05-23T03:38:36.510Z,7.00
2023-05-23T03:41:04.294Z,6.20
2023-05-23T03:43:32.131Z,6.70
2023-05-23T03:46:00.206Z,6.50
2023-05-23T03:48:28.153Z,7.20
2023-05-23T03:50:56.159Z,6.50
2023-05-23T03:53:27.255Z,6.80
2023-05-23T03:55:55.905Z,7.10
2023-05-23T03:58:23.875Z,7.10
2023-05-23T04:00:53.400Z,6.70
2023-05-23T04:03:21.446Z,7.00
2023-05-23T04:05:50.153Z,6.70
2023-05-23T04:08:22.150Z,6.10
2023-05-23T04:10:53.357Z,6.50
2023-05-23T04:13:22.038Z,5.90
2023-05-23T04:15:50.012Z,6.40
2023-05-23T04:18:18.372Z,6.80
2023-05-23T04:20:46.717Z,6.50
2023-05-23T04:23:14.615Z,6.80
2023-05-23T04:25:42.793Z,6.20
2023-05-23T04:28:11.660Z,7.00
2023-05-23T04:30:39.438Z,6.70
2023-05-23T04:33:08.099Z,7.10
2023-05-23T04:35:39.209Z,5.50
2023-05-23T04:38:07.189Z,6.70
2023-05-23T04:40:34.901Z,6.20
2023-05-23T04:43:02.798Z,6.60
2023-05-23T04:45:30.618Z,6.40
2023-05-23T04:47:58.593Z,6.90
2023-05-23T04:50:26.484Z,6.40
2023-05-23T04:52:54.306Z,6.80
2023-05-23T04:55:22.148Z,7.60
2023-05-23T04:57:50.849Z,6.40
2023-05-23T05:00:18.863Z,6.40
2023-05-23T05:02:46.679Z,6.20
2023-05-23T05:05:14.748Z,7.00
2023-05-23T05:07:42.545Z,6.80
2023-05-23T05:10:17.006Z,6.30
2023-05-23T05:12:46.922Z,6.60
2023-05-23T05:15:14.937Z,7.00
2023-05-23T05:17:43.420Z,7.60
2023-05-23T05:20:11.482Z,6.50
2023-05-23T05:22:43.200Z,6.60
2023-05-23T05:25:11.341Z,7.20
2023-05-23T05:27:39.592Z,6.80
2023-05-23T05:30:08.276Z,6.50
2023-05-23T05:32:36.257Z,7.40
2023-05-23T05:35:04.399Z,7.40
2023-05-23T05:37:32.316Z,7.80
2023-05-23T05:40:06.273Z,7.60
2023-05-23T05:42:34.250Z,7.50
2023-05-23T05:45:02.181Z,7.40
2023-05-23T05:47:30.171Z,6.60
2023-05-23T05:49:57.940Z,7.50
2023-05-23T05:52:26.231Z,6.60
2023-05-23T05:54:54.368Z,6.20
2023-05-23T05:57:22.138Z,6.70
2023-05-23T05:59:50.501Z,8.50
2023-05-23T06:02:18.673Z,7.50
2023-05-23T06:04:47.100Z,6.30
2023-05-23T06:07:15.499Z,7.80
2023-05-23T06:09:43.544Z,6.40
2023-05-23T06:12:11.588Z,6.40
2023-05-23T06:14:39.368Z,6.20
2023-05-23T06:17:09.823Z,6.10
2023-05-23T06:19:38.885Z,5.70
2023-05-23T06:22:07.216Z,6.80
2023-05-23T06:24:35.082Z,6.20
2023-05-23T06:27:03.196Z,5.50
2023-05-23T06:29:35.958Z,4.90
2023-05-23T06:32:06.674Z,6.20
2023-05-23T06:34:34.657Z,4.80
2023-05-23T06:37:02.483Z,4.90
2023-05-23T06:39:30.392Z,5.20
2023-05-23T06:41:58.175Z,5.40
2023-05-23T06:44:26.244Z,5.10
2023-05-23T06:46:58.919Z,4.90
2023-05-23T06:49:26.957Z,4.10
2023-05-23T06:51:54.837Z,4.70
2023-05-23T06:54:22.795Z,4.00
2023-05-23T06:56:50.730Z,4.90
2023-05-23T06:59:19.526Z,4.70
2023-05-23T07:01:47.314Z,4.60
2023-05-23T07:04:15.359Z,4.80
2023-05-23T07:06:43.070Z,4.50
2023-05-23T07:09:12.077Z,4.50
2023-05-23T07:11:41.281Z,5.40
2023-05-23T07:14:09.110Z,5.60
2023-05-23T07:16:36.943Z,4.60
2023-05-23T07:19:05.520Z,5.00
2023-05-23T07:21:33.470Z,4.30
2023-05-23T07:24:01.332Z,4.10
2023-05-23T07:26:29.191Z,3.90
2023-05-23T07:28:56.990Z,3.70
2023-05-23T07:31:24.910Z,4.00
2023-05-23T07:33:56.916Z,3.60
2023-05-23T07:36:25.008Z,4.30
2023-05-23T07:38:53.400Z,3.80
2023-05-23T07:41:22.199Z,4.20
2023-05-23T07:43:50.042Z,4.30
2023-05-23T07:46:17.965Z,4.10
2023-05-23T07:48:45.886Z,4.10
2023-05-23T07:51:13.721Z,4.30
2023-05-23T07:53:41.618Z,3.30
2023-05-23T07:56:09.535Z,3.20
2023-05-23T07:58:37.423Z,3.30
2023-05-23T08:01:05.675Z,3.90
2023-05-23T08:03:33.452Z,3.60
2023-05-23T08:06:01.263Z,3.00
2023-05-23T08:08:29.143Z,2.90
2023-05-23T08:10:56.990Z,3.00
2023-05-23T08:13:25.143Z,2.80
2023-05-23T08:15:54.037Z,3.30
2023-05-23T08:18:22.174Z,3.80
2023-05-23T08:20:50.233Z,3.00
2023-05-23T08:23:18.150Z,3.60
2023-05-23T08:25:45.990Z,3.00
2023-05-23T08:28:13.873Z,3.10
2023-05-23T08:30:42.681Z,2.90
2023-05-23T08:33:11.149Z,3.20
2023-05-23T08:35:39.390Z,2.90
2023-05-23T08:38:10.337Z,2.80
2023-05-23T08:40:40.818Z,2.60
2023-05-23T08:43:10.436Z,2.70
2023-05-23T08:45:38.239Z,2.70
2023-05-23T08:48:08.862Z,2.60
2023-05-23T08:50:37.943Z,2.90
2023-05-23T08:53:08.654Z,2.70
2023-05-23T08:55:37.794Z,2.80
2023-05-23T08:58:05.920Z,2.60
2023-05-23T09:00:35.105Z,2.80
2023-05-23T09:03:03.439Z,3.00
2023-05-23T09:05:31.559Z,3.70
2023-05-23T09:07:59.433Z,2.70
2023-05-23T09:10:30.005Z,3.00
2023-05-23T09:12:58.663Z,2.30
2023-05-23T09:15:27.644Z,2.30
2023-05-23T09:18:00.640Z,2.60
2023-05-23T09:20:28.871Z,2.60
2023-05-23T09:22:56.877Z,2.40
2023-05-23T09:25:24.621Z,2.50
2023-05-23T09:27:54.345Z,2.40
2023-05-23T09:30:22.506Z,2.60
2023-05-23T09:32:58.174Z,3.20
2023-05-23T09:35:28.538Z,2.50
2023-05-23T09:38:01.396Z,2.20
2023-05-23T09:40:31.112Z,2.20
2023-05-23T09:43:07.516Z,2.30
2023-05-23T09:45:36.267Z,2.40
2023-05-23T09:48:04.794Z,2.50
2023-05-23T09:50:33.924Z,2.50
2023-05-23T09:53:02.227Z,1.80
2023-05-23T09:55:30.570Z,2.20
2023-05-23T09:57:59.355Z,2.50
2023-05-23T10:00:30.217Z,2.50
2023-05-23T10:02:58.349Z,2.30
2023-05-23T10:05:41.635Z,2.10
2023-05-23T10:08:20.603Z,2.20
2023-05-23T10:10:51.296Z,2.20
2023-05-23T10:13:19.556Z,2.80
2023-05-23T10:15:49.886Z,2.60
2023-05-23T10:18:20.148Z,2.90
2023-05-23T10:20:49.504Z,2.70
2023-05-23T10:23:17.998Z,2.60
2023-05-23T10:25:46.224Z,2.50
2023-05-23T10:28:14.412Z,2.10
2023-05-23T10:30:43.078Z,2.30
2023-05-23T10:33:12.526Z,2.20
2023-05-23T10:35:43.506Z,2.30
2023-05-23T10:38:13.892Z,2.40
2023-05-23T10:40:47.840Z,2.60
2023-05-23T10:43:34.288Z,2.90
2023-05-23T10:46:02.529Z,3.30
2023-05-23T10:48:35.763Z,2.80
2023-05-23T10:51:15.877Z,2.40
2023-05-23T10:53:44.816Z,2.50
2023-05-23T10:56:22.623Z,2.60
2023-05-23T10:58:55.055Z,3.00
2023-05-23T11:01:23.933Z,2.70
2023-05-23T11:03:54.687Z,3.20
2023-05-23T11:06:41.703Z,2.90
2023-05-23T11:09:20.351Z,3.00
2023-05-23T11:11:52.230Z,2.80
2023-05-23T11:14:21.177Z,4.00
2023-05-23T11:16:49.328Z,2.90
2023-05-23T11:19:20.472Z,3.70
2023-05-23T11:21:59.011Z,3.80
2023-05-23T11:24:45.544Z,3.60
2023-05-23T11:27:13.297Z,4.00
2023-05-23T11:29:41.517Z,3.90
2023-05-23T11:32:16.828Z,3.30
2023-05-23T11:34:45.803Z,3.30
2023-05-23T11:37:13.610Z,4.10
2023-05-23T11:39:41.840Z,4.00
2023-05-23T11:42:09.782Z,3.80
2023-05-23T11:44:37.650Z,3.40
2023-05-23T11:47:06.899Z,4.10
2023-05-23T11:49:38.016Z,4.10
2023-05-23T11:52:09.452Z,4.40
2023-05-23T11:54:37.365Z,4.70
2023-05-23T11:57:05.466Z,4.50
2023-05-23T11:59:33.952Z,5.20
2023-05-23T12:02:02.774Z,5.20
2023-05-23T12:04:31.106Z,4.90
2023-05-23T12:06:59.635Z,5.00
2023-05-23T12:09:28.001Z,4.40
2023-05-23T12:11:55.820Z,3.80
2023-05-23T12:14:23.609Z,4.70
2023-05-23T12:16:52.733Z,5.00
2023-05-23T12:19:21.030Z,5.30
2023-05-23T12:21:49.620Z,6.10
2023-05-23T12:24:18.646Z,6.30
2023-05-23T12:26:54.142Z,5.30
2023-05-23T12:29:28.182Z,5.60
2023-05-23T12:31:58.144Z,4.50
2023-05-23T12:34:26.361Z,5.00
2023-05-23T12:37:10.232Z,4.80
2023-05-23T12:39:45.688Z,4.40
2023-05-23T12:42:13.580Z,4.70
2023-05-23T12:44:41.907Z,5.00
2023-05-23T12:47:13.480Z,5.10
2023-05-23T12:49:41.756Z,4.90
2023-05-23T12:52:12.120Z,5.10
2023-05-23T12:54:40.043Z,5.40
2023-05-23T12:57:07.964Z,6.00
2023-05-23T12:59:35.829Z,5.00
2023-05-23T13:02:03.595Z,5.80
2023-05-23T13:04:32.562Z,5.10
2023-05-23T13:07:00.696Z,5.50
2023-05-23T13:09:28.508Z,6.30
2023-05-23T13:11:56.680Z,5.70
2023-05-23T13:14:24.531Z,5.50
2023-05-23T13:16:52.750Z,5.40
2023-05-23T13:19:20.828Z,5.60
2023-05-23T13:21:49.853Z,5.80
2023-05-23T13:24:18.046Z,5.30
2023-05-23T13:26:45.864Z,6.00
2023-05-23T13:29:13.673Z,6.50
2023-05-23T13:31:41.664Z,6.10
2023-05-23T13:34:09.580Z,5.60
2023-05-23T13:36:37.407Z,6.00
2023-05-23T13:39:05.216Z,5.90
2023-05-23T13:41:33.192Z,6.20
2023-05-23T13:44:01.083Z,5.60
2023-05-23T13:46:29.001Z,5.40
2023-05-23T13:48:56.825Z,6.20
2023-05-23T13:51:24.677Z,5.50
2023-05-23T13:53:52.541Z,7.00
2023-05-23T13:56:20.900Z,6.20
2023-05-23T13:58:48.965Z,7.50
2023-05-23T14:01:17.548Z,7.40
2023-05-23T14:03:45.509Z,8.60
2023-05-23T14:06:13.457Z,7.30
2023-05-23T14:08:41.345Z,7.80
2023-05-23T14:11:09.290Z,8.50
2023-05-23T14:13:40.229Z,8.10
2023-05-23T14:16:09.919Z,8.70
2023-05-23T14:18:37.858Z,8.60
2023-05-23T14:21:06.231Z,8.60
2023-05-23T14:23:34.088Z,8.10
2023-05-23T14:26:02.052Z,12.80
2023-05-23T14:28:29.981Z,9.10
2023-05-23T14:30:59.124Z,9.00
2023-05-23T14:33:27.111Z,10.20
2023-05-23T14:35:55.126Z,9.80
2023-05-23T14:38:23.112Z,8.80
2023-05-23T14:40:50.957Z,8.00
2023-05-23T14:43:19.190Z,8.00
2023-05-23T14:45:47.226Z,7.80
2023-05-23T14:48:15.391Z,7.20
2023-05-23T14:50:43.305Z,8.10
2023-05-23T14:53:11.138Z,7.30
2023-05-23T14:55:39.380Z,6.90
2023-05-23T14:58:07.827Z,7.90
2023-05-23T15:00:35.966Z,7.40
2023-05-23T15:03:05.018Z,7.60
2023-05-23T15:05:34.354Z,7.70
2023-05-23T15:08:03.903Z,9.60
2023-05-23T15:10:32.724Z,9.10
2023-05-23T15:13:06.660Z,8.10
2023-05-23T15:15:37.771Z,7.90
2023-05-23T15:18:08.212Z,9.50
2023-05-23T15:20:39.364Z,9.40
2023-05-23T15:23:11.024Z,8.80
2023-05-23T15:25:49.434Z,9.60
2023-05-23T15:28:21.235Z,10.20
2023-05-23T15:30:49.750Z,10.80
2023-05-23T15:33:18.092Z,12.10
2023-05-23T15:35:46.130Z,15.90
2023-05-23T15:38:15.120Z,15.40
2023-05-23T15:40:44.381Z,16.40
2023-05-23T15:43:13.166Z,12.20
2023-05-23T15:45:41.370Z,10.80
2023-05-23T15:48:09.899Z,10.10
2023-05-23T15:50:37.841Z,10.80
2023-05-23T15:53:05.951Z,10.40
2023-05-23T15:55:33.860Z,10.50
2023-05-23T15:58:01.689Z,9.20
2023-05-23T16:00:29.656Z,8.20
2023-05-23T16:03:00.496Z,7.20
2023-05-23T16:05:28.652Z,6.70
2023-05-23T16:07:59.043Z,6.20
2023-05-23T16:10:26.962Z,6.70
2023-05-23T16:12:55.025Z,6.00
2023-05-23T16:15:23.036Z,6.60
2023-05-23T16:17:51.445Z,7.20
2023-05-23T16:20:21.774Z,7.30
2023-05-23T16:22:49.638Z,5.90
2023-05-23T16:25:17.813Z,6.70
2023-05-23T16:27:45.739Z,6.70
2023-05-23T16:30:13.627Z,6.80
2023-05-23T16:32:41.512Z,6.60
2023-05-23T16:35:11.184Z,5.90
2023-05-23T16:37:38.957Z,6.80
2023-05-23T16:40:07.303Z,6.40
2023-05-23T16:42:36.696Z,7.90
2023-05-23T16:45:05.061Z,6.90
2023-05-23T16:47:32.881Z,7.10
2023-05-23T16:50:00.856Z,7.70
2023-05-23T16:52:28.600Z,8.00
2023-05-23T16:54:56.500Z,9.20
2023-05-23T16:57:24.578Z,11.10
2023-05-23T16:59:52.459Z,11.60
2023-05-23T17:02:20.307Z,10.40
2023-05-23T17:04:48.547Z,6.90
2023-05-23T17:07:16.317Z,7.30
2023-05-23T17:09:44.250Z,8.70
2023-05-23T17:12:13.299Z,9.50
2023-05-23T17:14:41.066Z,9.30
2023-05-23T17:17:08.838Z,9.10
2023-05-23T17:19:36.944Z,8.40
2023-05-23T17:22:07.575Z,8.90
2023-05-23T17:24:36.747Z,9.10
2023-05-23T17:27:05.368Z,13.50
2023-05-23T17:29:33.550Z,8.60
2023-05-23T17:32:01.602Z,7.80
2023-05-23T17:34:29.740Z,7.90
2023-05-23T17:36:58.040Z,8.20
2023-05-23T17:39:26.316Z,8.30
2023-05-23T17:41:54.551Z,8.80
2023-05-23T17:44:22.475Z,8.20
2023-05-23T17:46:50.687Z,8.80
2023-05-23T17:49:18.739Z,10.20
2023-05-23T17:51:46.999Z,11.10
2023-05-23T17:54:15.097Z,12.20
2023-05-23T17:56:43.243Z,9.50
2023-05-23T17:59:14.215Z,8.40
2023-05-23T18:01:42.200Z,12.00
2023-05-23T18:04:10.206Z,14.10
2023-05-23T18:06:38.092Z,10.40
2023-05-23T18:09:06.010Z,11.20
2023-05-23T18:11:34.626Z,10.70
2023-05-23T18:14:02.826Z,10.40
2023-05-23T18:16:31.263Z,8.50
2023-05-23T18:18:59.691Z,7.80
2023-05-23T18:21:28.771Z,8.90
2023-05-23T18:23:56.770Z,9.80
2023-05-23T18:26:27.476Z,9.30
2023-05-23T18:28:55.390Z,9.00
2023-05-23T18:31:23.437Z,9.30
2023-05-23T18:33:51.314Z,8.50
2023-05-23T18:36:19.447Z,9.20
2023-05-23T18:38:47.438Z,8.20
2023-05-23T18:41:15.322Z,8.70
2023-05-23T18:43:43.313Z,8.50
2023-05-23T18:46:11.336Z,8.40
2023-05-23T18:48:39.329Z,8.60
2023-05-23T18:51:08.431Z,9.40
2023-05-23T18:53:36.276Z,9.00
2023-05-23T18:56:04.386Z,9.00
2023-05-23T18:58:32.618Z,9.00
2023-05-23T19:01:03.793Z,9.40
2023-05-23T19:03:33.660Z,10.40
2023-05-23T19:06:04.633Z,8.70
2023-05-23T19:08:32.957Z,9.30
2023-05-23T19:11:01.156Z,9.50
2023-05-23T19:13:29.168Z,9.20
2023-05-23T19:15:57.154Z,10.40
2023-05-23T19:18:25.138Z,10.10
2023-05-23T19:20:54.619Z,10.30
2023-05-23T19:23:22.574Z,10.30
2023-05-23T19:25:50.398Z,10.60
2023-05-23T19:28:18.317Z,11.10
2023-05-23T19:30:46.337Z,11.10
2023-05-23T19:33:14.783Z,10.70
2023-05-23T19:35:43.097Z,10.10
2023-05-23T19:38:11.503Z,10.10
2023-05-23T19:40:39.557Z,10.00
2023-05-23T19:43:07.405Z,9.80
2023-05-23T19:45:38.374Z,9.80
2023-05-23T19:48:06.749Z,10.50
2023-05-23T19:50:36.471Z,10.00
2023-05-23T19:53:05.567Z,9.80
2023-05-23T19:55:33.308Z,10.10
2023-05-23T19:58:01.815Z,10.30
2023-05-23T20:00:29.619Z,10.20
2023-05-23T20:02:57.724Z,10.20
2023-05-23T20:05:25.921Z,9.90
2023-05-23T20:07:53.799Z,10.90
2023-05-23T20:10:21.698Z,10.20
2023-05-23T20:12:49.807Z,11.40
2023-05-23T20:15:21.897Z,11.10
2023-05-23T20:17:56.280Z,10.60
2023-05-23T20:20:24.373Z,12.00
2023-05-23T20:22:52.861Z,10.60
2023-05-23T20:25:23.709Z,12.20
2023-05-23T20:27:51.903Z,10.60
2023-05-23T20:30:20.314Z,10.40
2023-05-23T20:32:48.881Z,10.70
2023-05-23T20:35:16.828Z,10.80
2023-05-23T20:37:45.334Z,11.10
2023-05-23T20:40:13.273Z,11.80
2023-05-23T20:42:41.338Z,11.80
2023-05-23T20:45:09.666Z,12.30
2023-05-23T20:47:41.552Z,11.70
2023-05-23T20:50:10.656Z,11.10
2023-05-23T20:52:43.901Z,11.50
2023-05-23T20:55:15.439Z,12.40
2023-05-23T20:57:43.391Z,12.00
2023-05-23T21:00:12.686Z,12.80
2023-05-23T21:02:41.374Z,13.60
2023-05-23T21:05:10.294Z,13.40
2023-05-23T21:07:38.826Z,12.60
2023-05-23T21:10:07.005Z,12.20
2023-05-23T21:12:35.276Z,13.40
2023-05-23T21:15:04.319Z,14.00
2023-05-23T21:17:32.249Z,12.80
2023-05-23T21:20:06.847Z,12.30
2023-05-23T21:22:34.942Z,12.60
2023-05-23T21:25:06.055Z,13.30
2023-05-23T21:27:34.299Z,12.60
2023-05-23T21:30:02.395Z,12.80
2023-05-23T21:32:31.179Z,11.90
2023-05-23T21:34:59.241Z,12.40
2023-05-23T21:37:27.259Z,11.90
2023-05-23T21:39:55.142Z,11.70
2023-05-23T21:42:24.718Z,12.60
2023-05-23T21:44:52.576Z,11.40
2023-05-23T21:47:23.994Z,11.80
2023-05-23T21:49:53.300Z,12.20
2023-05-23T21:52:22.584Z,12.60
2023-05-23T21:54:53.013Z,11.70
2023-05-23T21:57:20.866Z,12.80
2023-05-23T21:59:48.956Z,12.10
2023-05-23T22:02:17.397Z,12.30
2023-05-23T22:04:48.988Z,12.80
2023-05-23T22:07:21.176Z,13.30
2023-05-23T22:09:51.124Z,12.30
2023-05-23T22:12:22.500Z,12.50
2023-05-23T22:14:52.414Z,13.20
2023-05-23T22:17:22.586Z,12.20
2023-05-23T22:19:53.516Z,13.20
2023-05-23T22:22:21.414Z,11.20
2023-05-23T22:24:49.417Z,12.80
2023-05-23T22:27:17.901Z,13.80
2023-05-23T22:29:45.992Z,13.80
2023-05-23T22:32:13.892Z,13.10
2023-05-23T22:34:42.837Z,12.50
2023-05-23T22:37:15.808Z,13.20
2023-05-23T22:39:43.838Z,12.50
2023-05-23T22:42:11.848Z,12.50
2023-05-23T22:45:05.130Z,11.80
2023-05-23T22:47:33.082Z,12.40
2023-05-23T22:50:03.510Z,12.60
2023-05-23T22:52:31.554Z,13.10
2023-05-23T22:55:02.309Z,12.60
2023-05-23T22:57:30.536Z,12.70
2023-05-23T22:59:58.740Z,12.60
2023-05-23T23:02:27.913Z,12.50
2023-05-23T23:05:01.100Z,12.30
2023-05-23T23:07:29.309Z,12.30
2023-05-23T23:09:57.306Z,12.10
2023-05-23T23:12:29.808Z,12.70
2023-05-23T23:14:57.806Z,12.90
2023-05-23T23:17:36.244Z,12.40
2023-05-23T23:20:04.766Z,12.80
2023-05-23T23:22:32.728Z,12.10
2023-05-23T23:25:03.534Z,13.20
2023-05-23T23:27:33.000Z,11.70
2023-05-23T23:30:01.667Z,12.00
2023-05-23T23:32:29.493Z,12.10
2023-05-23T23:34:57.687Z,11.70
2023-05-23T23:37:25.933Z,11.90
2023-05-23T23:39:53.864Z,11.40
2023-05-23T23:42:22.040Z,12.00
2023-05-23T23:44:50.324Z,12.30
2023-05-23T23:47:18.344Z,11.20
2023-05-23T23:49:46.329Z,11.10
2023-05-23T23:52:14.480Z,11.80
2023-05-23T23:54:42.699Z,11.40
2023-05-23T23:57:13.929Z,12.00
2023-05-23T23:59:42.272Z,11.30
